Chaumont-Gistoux, Belgium
Current Conditions -  °F | °C
As of 10:25 PM on Wednesday 28 Jan 2015 (Local Time) from EBBE Reporting Station
Few Clouds Few Clouds  
Wind Chill: 26°   Ceiling: Unl
Heat Index: 36°   Visibility: 6mi
Dew Point: 28°   Wind: 16mph
Humidity: 75%   Direction: 250°WSW
Pressure: 29.53"   Gusts: NA
Location:  50.68°N, 4.72°E
Report Text: EBBE 282125Z AUTO 25014KT 9999 FEW060/// 02/M02 Q1000 BLU
Loading
Personal Weather Stations






























Interactive Weather Map New forecast layout! Learn more

10-Day Weather Forecast

Advertisements
Track Severe Weather on mobile